Time;durP1;ratioP1;P1;durP2;ratioP2;P2;SDS_P1;SDS_P2;PMS_P1;PMS_P2;Temp;Humidity;BMP_temperature;BMP_pressure;BME280_temperature;BME280_humidity;BME280_pressure;Samples;Min_cycle;Max_cycle;Signal;HPM_P1;HPM_P2
2023/06/19 00:01:47;;;;;;;7.05;6.45;;;21.60;1.00;;;;;;5038388;28;20233;-78
2023/06/19 00:04:12;;;;;;;7.20;6.50;;;21.70;1.00;;;;;;5038091;28;20176;-80
2023/06/19 00:06:38;;;;;;;6.95;6.20;;;21.70;99.90;;;;;;5038237;28;20189;-80
2023/06/19 00:09:04;;;;;;;6.90;6.30;;;21.60;99.90;;;;;;5055526;28;20209;-80
2023/06/19 00:11:29;;;;;;;6.97;6.20;;;21.60;1.00;;;;;;5055503;28;20212;-80
2023/06/19 00:13:55;;;;;;;7.20;6.50;;;21.50;1.00;;;;;;5037164;28;20178;-80
2023/06/19 00:16:21;;;;;;;7.40;6.70;;;21.50;1.00;;;;;;5040090;28;20201;-80
2023/06/19 00:18:46;;;;;;;6.95;6.35;;;21.50;1.00;;;;;;5041522;28;20177;-79
2023/06/19 00:21:12;;;;;;;7.28;6.28;;;21.50;1.00;;;;;;5041425;28;20189;-80
2023/06/19 00:23:38;;;;;;;6.50;5.90;;;21.40;1.00;;;;;;5041312;28;20177;-80
2023/06/19 00:26:04;;;;;;;6.90;6.15;;;21.40;58.90;;;;;;5059434;28;20174;-80
2023/06/19 00:28:30;;;;;;;6.60;6.00;;;21.40;1.00;;;;;;5041072;28;20265;-80
2023/06/19 00:30:56;;;;;;;6.95;6.15;;;21.40;99.90;;;;;;5041154;28;20190;-79
2023/06/19 00:33:22;;;;;;;6.57;5.97;;;21.30;99.90;;;;;;5059171;28;20273;-79
2023/06/19 00:35:50;;;;;;;6.80;6.10;;;21.30;99.90;;;;;;5058927;28;20271;-80
2023/06/19 00:38:16;;;;;;;6.80;6.20;;;21.30;1.00;;;;;;5059376;28;20185;-80
2023/06/19 00:40:41;;;;;;;6.68;6.07;;;21.30;1.00;;;;;;5041159;28;20193;-80
2023/06/19 00:43:07;;;;;;;7.25;6.30;;;21.20;1.00;;;;;;5058918;28;20195;-80
2023/06/19 00:45:33;;;;;;;7.28;6.47;;;21.30;1.00;;;;;;5058724;28;20176;-80
2023/06/19 00:47:59;;;;;;;6.45;5.88;;;21.30;99.90;;;;;;5058829;28;20172;-80
2023/06/19 00:50:27;;;;;;;6.82;6.22;;;21.20;1.00;;;;;;5040610;28;20197;-80
2023/06/19 00:52:53;;;;;;;7.13;6.43;;;21.00;1.00;;;;;;5058705;28;20177;-80
2023/06/19 00:55:19;;;;;;;6.70;6.10;;;21.00;99.90;;;;;;5058584;28;20205;-80
2023/06/19 00:57:45;;;;;;;6.80;6.20;;;21.00;99.90;;;;;;5040576;28;20197;-80
2023/06/19 01:00:12;;;;;;;6.28;5.78;;;21.00;39.60;;;;;;5058209;28;20190;-80
2023/06/19 01:02:39;;;;;;;8.85;6.00;;;20.70;99.90;;;;;;5041037;28;20252;-80
2023/06/19 01:05:05;;;;;;;6.75;6.10;;;20.60;99.90;;;;;;5040286;28;20181;-80
2023/06/19 01:07:49;;;;;;;7.05;6.10;;;20.70;52.00;;;;;;5058546;28;20166;-80
2023/06/19 01:10:32;;;;;;;6.43;5.82;;;20.80;99.90;;;;;;5058547;28;20182;-80
2023/06/19 01:13:27;;;;;;;6.97;6.35;;;21.00;99.90;;;;;;5058315;28;20178;-80
2023/06/19 01:15:52;;;;;;;6.53;5.95;;;21.00;99.90;;;;;;4986276;28;20208;-80
2023/06/19 01:18:19;;;;;;;6.50;5.90;;;20.90;1.00;;;;;;5040615;28;20169;-80
2023/06/19 01:20:44;;;;;;;7.25;6.22;;;20.90;99.90;;;;;;5058519;28;20275;-80
2023/06/19 01:23:11;;;;;;;6.25;5.75;;;20.90;1.00;;;;;;5058084;28;20178;-80
2023/06/19 01:25:37;;;;;;;8.02;6.00;;;20.80;99.90;;;;;;5040240;28;20298;-80
2023/06/19 01:28:09;;;;;;;7.07;6.38;;;20.80;99.90;;;;;;5057485;28;20186;-80
2023/06/19 01:30:35;;;;;;;6.57;5.97;;;20.80;99.90;;;;;;5057998;28;20197;-80
2023/06/19 01:33:26;;;;;;;6.68;6.07;;;20.70;99.90;;;;;;5057823;28;20181;-81
2023/06/19 01:35:52;;;;;;;6.68;6.07;;;20.80;93.60;;;;;;5057904;28;20186;-80
2023/06/19 01:38:21;;;;;;;7.10;6.47;;;20.90;1.00;;;;;;5057775;28;20174;-80
2023/06/19 01:40:48;;;;;;;6.70;6.10;;;20.90;99.90;;;;;;5057820;28;20209;-80
2023/06/19 01:43:15;;;;;;;6.68;6.07;;;20.90;99.90;;;;;;5039936;28;20174;-80
2023/06/19 01:45:41;;;;;;;6.40;5.90;;;21.00;1.00;;;;;;5039799;28;20177;-80
2023/06/19 01:48:08;;;;;;;6.95;5.95;;;20.80;1.00;;;;;;5039833;28;20194;-80
2023/06/19 01:50:33;;;;;;;6.85;5.75;;;20.80;99.90;;;;;;5057093;28;20215;-80
2023/06/19 01:52:59;;;;;;;6.78;6.07;;;20.80;99.90;;;;;;5039846;28;20181;-80
2023/06/19 01:55:25;;;;;;;6.72;6.13;;;20.80;99.90;;;;;;5057632;28;20288;-80
2023/06/19 01:57:51;;;;;;;6.53;5.93;;;20.90;1.00;;;;;;5039601;28;20178;-80
2023/06/19 02:00:17;;;;;;;6.40;5.78;;;20.80;1.00;;;;;;5056769;28;20338;-80
2023/06/19 02:02:42;;;;;;;7.00;6.30;;;20.70;1.00;;;;;;5039290;28;20181;-80
2023/06/19 02:05:08;;;;;;;7.07;6.38;;;20.80;1.00;;;;;;5039297;28;20174;-80
2023/06/19 02:07:34;;;;;;;6.93;6.30;;;20.80;1.00;;;;;;5057088;28;20197;-80
2023/06/19 02:09:59;;;;;;;6.60;6.00;;;20.70;1.00;;;;;;5039375;28;20193;-80
2023/06/19 02:12:25;;;;;;;6.53;5.93;;;20.80;1.00;;;;;;5057111;28;20178;-80
2023/06/19 02:14:50;;;;;;;6.85;6.15;;;20.80;99.90;;;;;;5038999;28;20193;-80
2023/06/19 02:17:16;;;;;;;7.00;6.20;;;20.70;99.90;;;;;;5039048;28;20747;-79
2023/06/19 02:19:42;;;;;;;6.85;6.15;;;20.60;99.90;;;;;;5056656;28;20675;-80
2023/06/19 02:22:08;;;;;;;6.85;6.22;;;20.60;99.90;;;;;;5056600;28;20186;-80
2023/06/19 02:24:33;;;;;;;6.47;5.97;;;20.50;36.50;;;;;;5038737;28;20261;-80
2023/06/19 02:26:59;;;;;;;7.03;6.40;;;20.50;1.00;;;;;;5056684;28;20640;-80
2023/06/19 02:29:25;;;;;;;6.97;6.38;;;20.50;1.00;;;;;;5038661;28;20181;-80
2023/06/19 02:31:51;;;;;;;6.88;6.28;;;20.40;99.90;;;;;;5038198;28;20197;-80
2023/06/19 02:34:16;;;;;;;7.00;6.30;;;20.30;99.90;;;;;;5038313;28;20176;-80
2023/06/19 02:36:42;;;;;;;7.68;6.90;;;20.40;99.90;;;;;;5056348;28;20296;-80
2023/06/19 02:39:08;;;;;;;6.78;6.18;;;20.30;1.00;;;;;;5037603;28;20252;-80
2023/06/19 02:41:34;;;;;;;7.82;7.13;;;20.30;1.00;;;;;;5056012;28;20201;-80
2023/06/19 02:44:00;;;;;;;7.28;6.68;;;20.20;99.90;;;;;;5056070;28;20174;-80
2023/06/19 02:46:26;;;;;;;7.22;6.53;;;20.10;2.80;;;;;;5038139;28;20182;-80
2023/06/19 02:48:51;;;;;;;6.97;6.35;;;20.00;99.90;;;;;;5038323;28;20184;-80
2023/06/19 02:51:17;;;;;;;6.60;6.00;;;20.00;99.90;;;;;;5056044;28;20229;-80
2023/06/19 02:53:43;;;;;;;7.03;6.32;;;20.00;99.90;;;;;;5038260;28;20180;-80
2023/06/19 02:56:09;;;;;;;7.03;6.38;;;19.90;1.00;;;;;;5038477;28;20284;-80
2023/06/19 02:58:37;;;;;;;6.82;6.07;;;19.70;1.00;;;;;;5038131;28;20219;-80
2023/06/19 03:01:03;;;;;;;7.25;6.55;;;19.40;99.90;;;;;;5055396;28;20197;-80
2023/06/19 03:03:29;;;;;;;7.65;6.72;;;19.30;99.90;;;;;;5055830;28;20169;-79
2023/06/19 03:05:55;;;;;;;7.45;6.57;;;19.30;1.00;;;;;;5056014;28;20183;-80
2023/06/19 03:08:20;;;;;;;7.20;6.38;;;19.20;99.90;;;;;;5055865;28;20264;-80
2023/06/19 03:10:46;;;;;;;7.00;6.40;;;19.30;99.90;;;;;;5055701;28;20194;-80
2023/06/19 03:13:13;;;;;;;6.75;6.05;;;19.20;99.90;;;;;;5037422;28;20554;-80
2023/06/19 03:15:39;;;;;;;7.03;6.43;;;19.20;1.00;;;;;;5055746;28;20289;-80
2023/06/19 03:18:06;;;;;;;6.85;6.13;;;19.40;99.90;;;;;;5037712;28;20204;-80
2023/06/19 03:20:32;;;;;;;6.70;6.10;;;19.40;1.00;;;;;;5037317;28;20186;-80
2023/06/19 03:22:58;;;;;;;6.60;5.90;;;19.40;1.00;;;;;;5055517;28;20185;-80
2023/06/19 03:25:23;;;;;;;6.45;5.85;;;19.20;99.90;;;;;;5037801;28;20170;-79
2023/06/19 03:27:49;;;;;;;7.28;6.50;;;19.20;1.00;;;;;;5055904;28;20174;-80
2023/06/19 03:30:18;;;;;;;6.82;6.13;;;19.00;1.00;;;;;;5037523;28;20254;-80
2023/06/19 03:32:44;;;;;;;6.50;5.95;;;19.00;13.10;;;;;;5055621;28;20174;-80
2023/06/19 03:35:10;;;;;;;7.10;6.40;;;18.90;99.90;;;;;;5037816;28;20602;-80
2023/06/19 03:37:36;;;;;;;6.43;5.82;;;19.00;1.00;;;;;;5038119;28;20188;-79
2023/06/19 03:40:03;;;;;;;6.57;5.97;;;19.10;1.00;;;;;;5055114;28;20190;-79
2023/06/19 03:42:28;;;;;;;6.82;6.22;;;19.10;1.00;;;;;;5037645;28;20169;-80
2023/06/19 03:44:54;;;;;;;6.97;6.28;;;19.10;1.00;;;;;;5055422;28;20223;-80
2023/06/19 03:47:21;;;;;;;6.70;5.97;;;19.10;45.00;;;;;;5037694;28;20195;-79
2023/06/19 03:49:48;;;;;;;6.75;6.15;;;19.10;1.00;;;;;;5038131;28;20197;-79
2023/06/19 03:52:14;;;;;;;6.85;6.25;;;19.10;1.00;;;;;;5044126;28;20177;-80
2023/06/19 03:54:39;;;;;;;6.97;6.38;;;19.20;1.00;;;;;;5044001;28;20173;-80
2023/06/19 03:57:06;;;;;;;6.60;6.00;;;19.30;99.90;;;;;;5044098;28;20208;-80
2023/06/19 03:59:31;;;;;;;7.07;6.32;;;19.30;99.90;;;;;;5062257;28;20611;-80
2023/06/19 04:01:57;;;;;;;7.70;6.18;;;19.30;1.00;;;;;;5044049;28;20230;-79
2023/06/19 04:04:23;;;;;;;6.93;6.30;;;19.40;1.00;;;;;;5062200;28;20191;-80
2023/06/19 04:06:48;;;;;;;8.38;6.90;;;19.30;99.90;;;;;;5043731;28;20177;-80
2023/06/19 04:09:14;;;;;;;6.80;6.13;;;19.20;1.00;;;;;;5043997;28;20173;-80
2023/06/19 04:11:39;;;;;;;7.50;6.80;;;19.30;99.90;;;;;;5061363;28;20185;-79
2023/06/19 04:14:05;;;;;;;6.65;6.05;;;19.20;99.90;;;;;;5043855;28;20173;-80
2023/06/19 04:16:30;;;;;;;7.90;6.22;;;19.20;47.20;;;;;;5062053;28;20258;-81
2023/06/19 04:18:56;;;;;;;7.05;6.35;;;19.10;1.00;;;;;;5061931;28;20188;-80
2023/06/19 04:21:22;;;;;;;7.63;6.82;;;19.00;1.00;;;;;;5043941;28;20185;-80
2023/06/19 04:23:47;;;;;;;6.97;6.35;;;19.00;99.90;;;;;;5044141;28;20263;-80
2023/06/19 04:26:13;;;;;;;7.60;6.80;;;18.90;99.90;;;;;;5043797;28;20180;-80
2023/06/19 04:28:39;;;;;;;7.05;6.45;;;18.90;1.00;;;;;;5044074;28;20205;-80
2023/06/19 04:31:05;;;;;;;7.70;6.20;;;18.90;18.00;;;;;;5043492;28;20228;-80
2023/06/19 04:33:32;;;;;;;7.30;6.60;;;19.00;1.00;;;;;;5043821;28;20180;-80
2023/06/19 04:35:57;;;;;;;7.72;6.88;;;19.00;4.50;;;;;;5061928;28;20680;-79
2023/06/19 04:38:23;;;;;;;7.35;6.65;;;19.00;1.00;;;;;;5043639;28;20170;-79
2023/06/19 04:40:49;;;;;;;7.53;6.82;;;19.10;1.00;;;;;;5061237;28;20273;-80
2023/06/19 04:43:15;;;;;;;7.25;6.65;;;19.20;1.00;;;;;;5043770;28;20177;-79
2023/06/19 04:45:41;;;;;;;7.85;7.03;;;19.30;12.40;;;;;;5061525;28;20182;-80
2023/06/19 04:48:06;;;;;;;7.28;6.50;;;19.30;1.00;;;;;;5043793;28;20174;-80
2023/06/19 04:50:32;;;;;;;7.68;6.97;;;19.30;1.00;;;;;;5061883;28;20194;-80
2023/06/19 04:52:57;;;;;;;8.25;7.55;;;19.30;1.00;;;;;;5043440;28;20193;-79
2023/06/19 04:55:25;;;;;;;7.93;7.22;;;19.30;1.00;;;;;;5061744;28;20173;-80
2023/06/19 04:57:50;;;;;;;9.25;7.70;;;19.40;1.00;;;;;;5044074;28;20173;-80
2023/06/19 05:00:19;;;;;;;8.02;7.22;;;19.40;99.90;;;;;;5043462;28;20194;-80
2023/06/19 05:02:46;;;;;;;7.80;7.10;;;19.40;1.00;;;;;;5041079;28;20182;-79
2023/06/19 05:05:12;;;;;;;8.82;7.40;;;19.40;1.00;;;;;;5059165;28;20178;-79
2023/06/19 05:07:38;;;;;;;8.57;7.68;;;19.50;99.90;;;;;;5040473;28;20174;-79
2023/06/19 05:10:04;;;;;;;8.00;7.20;;;19.60;75.40;;;;;;5055580;28;20212;-79
2023/06/19 05:12:29;;;;;;;9.77;7.78;;;19.70;1.00;;;;;;5055632;28;20174;-78
2023/06/19 05:14:55;;;;;;;8.30;7.50;;;19.60;1.00;;;;;;5055428;28;20566;-79
2023/06/19 05:17:21;;;;;;;8.57;7.63;;;19.70;1.00;;;;;;5038041;28;20224;-78
2023/06/19 05:19:46;;;;;;;8.18;7.38;;;19.70;99.90;;;;;;5055531;28;20189;-77
2023/06/19 05:22:13;;;;;;;7.55;6.82;;;19.80;99.90;;;;;;5038067;28;20265;-79
2023/06/19 05:24:38;;;;;;;7.85;7.05;;;19.80;1.00;;;;;;5037397;28;20189;-79
2023/06/19 05:27:04;;;;;;;9.05;6.72;;;19.90;1.00;;;;;;5037403;28;20174;-79
2023/06/19 05:29:30;;;;;;;8.15;7.25;;;20.00;62.30;;;;;;5037150;28;20272;-79
2023/06/19 05:31:56;;;;;;;7.75;6.95;;;20.10;1.00;;;;;;5055489;28;20209;-79
2023/06/19 05:34:22;;;;;;;7.70;6.80;;;20.20;1.00;;;;;;5037236;28;20174;-79
2023/06/19 05:36:48;;;;;;;9.48;7.00;;;20.30;16.90;;;;;;5055350;28;20212;-79
2023/06/19 05:39:14;;;;;;;7.65;6.95;;;20.40;1.00;;;;;;5056475;28;20174;-78
2023/06/19 05:41:40;;;;;;;7.65;6.88;;;20.50;1.00;;;;;;5039926;28;20193;-78
2023/06/19 05:44:06;;;;;;;7.80;7.00;;;20.60;1.00;;;;;;5057772;28;20185;-79
2023/06/19 05:46:31;;;;;;;7.97;7.13;;;20.70;99.90;;;;;;5040237;28;20192;-77
2023/06/19 05:48:57;;;;;;;9.20;7.25;;;20.70;99.90;;;;;;5058659;28;20185;-79
2023/06/19 05:51:22;;;;;;;7.57;6.72;;;20.80;99.90;;;;;;5041721;28;20275;-81
2023/06/19 05:53:49;;;;;;;8.02;7.22;;;20.90;1.00;;;;;;5041594;28;20564;-80
2023/06/19 05:56:15;;;;;;;7.28;6.57;;;21.00;99.90;;;;;;5060511;28;20197;-78
2023/06/19 05:58:41;;;;;;;7.97;6.70;;;21.00;99.90;;;;;;5061182;28;20668;-78
2023/06/19 06:01:07;;;;;;;7.72;6.55;;;21.10;99.90;;;;;;5042899;28;20300;-79
2023/06/19 06:03:33;;;;;;;7.75;6.95;;;21.10;99.90;;;;;;5039658;28;20173;-83
2023/06/19 06:06:03;;;;;;;9.23;6.38;;;21.20;99.90;;;;;;5060450;28;20265;-78
2023/06/19 06:08:29;;;;;;;9.30;7.10;;;21.30;99.90;;;;;;5042755;28;20184;-79
2023/06/19 06:10:55;;;;;;;7.63;6.75;;;21.30;1.00;;;;;;5039648;28;20279;-79
2023/06/19 06:13:21;;;;;;;7.25;6.20;;;21.40;1.00;;;;;;5039595;28;20174;-79
2023/06/19 06:15:46;;;;;;;7.53;5.97;;;21.50;1.00;;;;;;5057164;28;20193;-80
2023/06/19 06:18:12;;;;;;;9.48;6.45;;;21.60;1.00;;;;;;5038532;28;20197;-81
2023/06/19 06:20:37;;;;;;;6.70;5.97;;;21.80;1.00;;;;;;5037605;28;20197;-81
2023/06/19 06:23:03;;;;;;;9.95;6.00;;;21.90;1.00;;;;;;5056157;28;20205;-80
2023/06/19 06:25:29;;;;;;;7.90;6.25;;;22.00;1.00;;;;;;5056373;28;20174;-79
2023/06/19 06:27:54;;;;;;;8.00;6.20;;;22.10;1.00;;;;;;5038399;28;20197;-81
2023/06/19 06:30:20;;;;;;;7.38;6.20;;;22.20;1.00;;;;;;5052192;28;20205;-80
2023/06/19 06:32:45;;;;;;;6.57;5.80;;;22.20;58.40;;;;;;5035709;28;20198;-79
2023/06/19 06:35:11;;;;;;;6.00;5.50;;;22.40;1.00;;;;;;5034811;28;20196;-79
2023/06/19 06:37:37;;;;;;;7.40;6.00;;;22.40;1.00;;;;;;5036634;28;20203;-79
2023/06/19 06:40:07;;;;;;;6.28;5.68;;;22.40;1.00;;;;;;5035169;28;20213;-81
2023/06/19 06:42:33;;;;;;;6.28;5.78;;;22.50;1.00;;;;;;5036307;28;20166;-80
2023/06/19 06:44:58;;;;;;;6.68;5.97;;;22.60;1.00;;;;;;5035920;28;20242;-80
2023/06/19 06:47:24;;;;;;;6.32;5.72;;;22.60;1.00;;;;;;5035646;28;20181;-79
2023/06/19 06:49:50;;;;;;;7.13;5.50;;;22.60;1.00;;;;;;5037251;28;20166;-79
2023/06/19 06:52:16;;;;;;;6.00;5.50;;;22.60;1.00;;;;;;5037523;28;20170;-80
2023/06/19 06:54:41;;;;;;;5.78;5.28;;;22.60;36.90;;;;;;5035909;28;20178;-80
2023/06/19 06:57:08;;;;;;;6.18;5.57;;;22.70;1.00;;;;;;5036445;28;20198;-81
2023/06/19 06:59:33;;;;;;;6.18;5.68;;;22.70;1.00;;;;;;5036291;28;20174;-79
2023/06/19 07:01:59;;;;;;;6.22;5.63;;;22.90;26.10;;;;;;5036646;28;20675;-79
2023/06/19 07:04:25;;;;;;;6.13;5.53;;;23.00;1.00;;;;;;5037373;28;20193;-80
2023/06/19 07:06:50;;;;;;;6.22;5.65;;;23.00;1.00;;;;;;5038095;28;20194;-79
2023/06/19 07:09:16;;;;;;;5.95;5.40;;;23.00;1.00;;;;;;5045288;28;20697;-79
2023/06/19 07:11:42;;;;;;;6.47;5.97;;;23.00;1.00;;;;;;5050051;28;20205;-79
2023/06/19 07:14:07;;;;;;;6.35;5.75;;;23.10;1.00;;;;;;5056884;28;20214;-79
2023/06/19 07:16:33;;;;;;;5.95;5.45;;;23.30;1.00;;;;;;5055934;28;20270;-80
2023/06/19 07:18:58;;;;;;;5.70;5.10;;;23.40;1.00;;;;;;5045399;28;20244;-80
2023/06/19 07:21:25;;;;;;;5.32;4.82;;;23.50;1.00;;;;;;5034797;28;20266;-80
2023/06/19 07:23:51;;;;;;;5.50;5.00;;;23.60;1.00;;;;;;5034542;28;20633;-79
2023/06/19 07:26:16;;;;;;;6.95;5.40;;;23.70;1.00;;;;;;5036898;28;20178;-83
2023/06/19 07:28:42;;;;;;;5.40;4.90;;;23.80;1.00;;;;;;5056990;28;20173;-79
2023/06/19 07:31:08;;;;;;;5.60;5.07;;;23.90;1.00;;;;;;5055153;28;20232;-80
2023/06/19 07:33:34;;;;;;;5.10;4.60;;;23.80;1.00;;;;;;5035585;28;20174;-80
2023/06/19 07:36:02;;;;;;;5.10;4.63;;;23.90;1.00;;;;;;5035284;28;20280;-80
2023/06/19 07:38:28;;;;;;;5.10;4.60;;;24.10;99.90;;;;;;5053079;28;20177;-79
2023/06/19 07:40:53;;;;;;;5.95;4.75;;;24.10;99.90;;;;;;5035370;28;20186;-80
2023/06/19 07:43:19;;;;;;;5.28;4.53;;;24.20;99.90;;;;;;5035497;28;20227;-80
2023/06/19 07:45:44;;;;;;;5.10;4.70;;;24.30;99.90;;;;;;5035394;28;20243;-80
2023/06/19 07:48:10;;;;;;;5.32;4.70;;;24.30;99.90;;;;;;5037758;28;20170;-80
2023/06/19 07:50:35;;;;;;;5.30;4.80;;;24.40;99.90;;;;;;5037524;28;20242;-80
2023/06/19 07:53:01;;;;;;;5.82;4.70;;;24.50;99.90;;;;;;5037766;28;20268;-82
2023/06/19 07:55:28;;;;;;;6.30;4.47;;;24.60;99.90;;;;;;5055324;28;20664;-79
2023/06/19 07:57:56;;;;;;;5.22;4.72;;;24.60;99.90;;;;;;5037108;28;20555;-80
2023/06/19 08:00:23;;;;;;;4.90;4.50;;;24.60;99.90;;;;;;5055020;28;20186;-80
2023/06/19 08:02:48;;;;;;;4.90;4.50;;;24.60;99.90;;;;;;5037296;28;20624;-80
2023/06/19 08:05:14;;;;;;;4.70;4.30;;;24.70;99.90;;;;;;5037801;28;20189;-80
2023/06/19 08:07:40;;;;;;;5.00;4.43;;;24.70;99.90;;;;;;5055279;28;20174;-80
2023/06/19 08:10:06;;;;;;;4.70;4.20;;;24.70;99.90;;;;;;5055073;28;20228;-80
2023/06/19 08:12:32;;;;;;;5.10;4.68;;;24.80;99.90;;;;;;5055303;28;20690;-80
2023/06/19 08:14:57;;;;;;;5.20;4.32;;;24.90;99.90;;;;;;5054886;28;20174;-80
2023/06/19 08:17:23;;;;;;;4.95;4.55;;;25.00;99.90;;;;;;5037049;28;20213;-80
2023/06/19 08:19:49;;;;;;;4.85;4.38;;;25.00;99.90;;;;;;5055139;28;20177;-81
2023/06/19 08:22:15;;;;;;;5.00;4.57;;;25.10;99.90;;;;;;5037147;28;20223;-80
2023/06/19 08:24:40;;;;;;;4.47;4.07;;;25.10;99.90;;;;;;5055416;28;20166;-81
2023/06/19 08:27:06;;;;;;;5.00;4.50;;;25.20;99.90;;;;;;5036820;28;20185;-80
2023/06/19 08:29:32;;;;;;;4.60;4.20;;;25.30;99.90;;;;;;5055277;28;20174;-80
2023/06/19 08:31:58;;;;;;;5.40;4.35;;;25.20;99.90;;;;;;5054530;28;20255;-80
2023/06/19 08:34:23;;;;;;;5.50;4.20;;;25.10;99.90;;;;;;5037317;28;20174;-80
2023/06/19 08:36:49;;;;;;;6.65;4.70;;;25.00;99.90;;;;;;5037298;28;20227;-82
2023/06/19 08:39:15;;;;;;;4.78;4.38;;;25.10;99.90;;;;;;5041374;28;20174;-80
2023/06/19 08:41:41;;;;;;;5.10;4.57;;;25.20;99.90;;;;;;5058940;28;20192;-80
2023/06/19 08:44:07;;;;;;;5.43;4.78;;;25.30;99.90;;;;;;5040822;28;20227;-80
2023/06/19 08:46:34;;;;;;;6.07;4.70;;;25.30;99.90;;;;;;5040451;28;20204;-80
2023/06/19 08:49:00;;;;;;;5.05;4.55;;;25.40;99.90;;;;;;5041017;28;20674;-80
2023/06/19 08:51:28;;;;;;;4.90;4.50;;;25.50;81.40;;;;;;5040417;28;20194;-80
2023/06/19 08:54:01;;;;;;;4.47;4.07;;;25.40;50.70;;;;;;5058413;28;20174;-80
2023/06/19 08:56:27;;;;;;;4.70;4.30;;;25.20;66.20;;;;;;5040975;28;20202;-80
2023/06/19 08:58:53;;;;;;;4.30;3.90;;;25.20;99.50;;;;;;5041343;28;20181;-80
2023/06/19 09:01:19;;;;;;;4.55;4.15;;;25.30;93.50;;;;;;5057720;28;20300;-81
2023/06/19 09:03:46;;;;;;;4.45;4.05;;;25.40;99.90;;;;;;5040113;28;20193;-80
2023/06/19 09:06:16;;;;;;;4.82;4.43;;;25.70;91.30;;;;;;5039739;28;20174;-80
2023/06/19 09:08:41;;;;;;;4.72;4.32;;;25.60;27.20;;;;;;5058574;28;20177;-80
2023/06/19 09:11:07;;;;;;;4.97;4.10;;;25.50;96.40;;;;;;5057579;28;20280;-80
2023/06/19 09:13:33;;;;;;;4.78;4.38;;;25.40;99.90;;;;;;5058378;28;20182;-81
2023/06/19 09:16:01;;;;;;;4.75;4.00;;;25.50;96.00;;;;;;5057804;28;20223;-80
2023/06/19 09:18:28;;;;;;;4.55;4.10;;;25.70;99.90;;;;;;5040555;28;20169;-80
2023/06/19 09:20:54;;;;;;;5.38;4.60;;;26.00;66.00;;;;;;5039615;28;20197;-80
2023/06/19 09:23:20;;;;;;;3.95;3.65;;;26.50;99.90;;;;;;5057490;28;20220;-80
2023/06/19 09:25:50;;;;;;;3.85;3.55;;;26.70;1.00;;;;;;5039795;28;20181;-80
2023/06/19 09:28:22;;;;;;;3.97;3.58;;;26.70;1.00;;;;;;5039967;28;20177;-80
2023/06/19 09:30:58;;;;;;;4.72;4.32;;;26.70;1.00;;;;;;5057373;28;20193;-80
2023/06/19 09:33:32;;;;;;;4.35;3.95;;;26.70;1.00;;;;;;5057446;28;20231;-80
2023/06/19 09:35:59;;;;;;;4.70;4.30;;;26.90;1.00;;;;;;5039503;28;20208;-79
2023/06/19 09:38:30;;;;;;;6.00;4.47;;;27.00;1.00;;;;;;5058114;28;20170;-80
2023/06/19 09:40:58;;;;;;;4.50;4.20;;;26.90;1.00;;;;;;5040091;28;20221;-79
2023/06/19 09:43:25;;;;;;;4.40;4.00;;;27.00;1.00;;;;;;5057032;28;20178;-81
2023/06/19 09:45:55;;;;;;;4.78;4.30;;;27.00;1.00;;;;;;5039290;28;20268;-80
2023/06/19 09:48:28;;;;;;;4.75;4.10;;;27.30;1.00;;;;;;5038927;28;20177;-82
2023/06/19 09:50:59;;;;;;;4.45;4.15;;;27.50;1.00;;;;;;5039427;28;20265;-81
2023/06/19 09:53:25;;;;;;;5.13;4.60;;;27.20;1.00;;;;;;5058405;28;20212;-81
2023/06/19 09:55:51;;;;;;;4.43;4.03;;;26.90;1.00;;;;;;5041375;28;20200;-80
2023/06/19 09:58:20;;;;;;;4.75;4.28;;;26.70;1.00;;;;;;5042175;28;20176;-79
2023/06/19 10:00:47;;;;;;;5.47;4.22;;;26.70;1.00;;;;;;5040673;28;20217;-80
2023/06/19 10:03:13;;;;;;;4.13;3.83;;;26.80;1.00;;;;;;5059678;28;20189;-80
2023/06/19 10:05:40;;;;;;;4.63;4.20;;;27.00;1.00;;;;;;5041102;28;20178;-80
2023/06/19 10:08:06;;;;;;;4.68;4.28;;;27.10;1.00;;;;;;5041304;28;20178;-80
2023/06/19 10:10:34;;;;;;;5.55;4.57;;;27.40;1.00;;;;;;5040416;28;20194;-79
2023/06/19 10:13:11;;;;;;;4.60;4.30;;;27.70;1.00;;;;;;5058157;28;20178;-80
2023/06/19 10:15:42;;;;;;;4.78;4.38;;;28.00;1.00;;;;;;5059081;28;20176;-81
2023/06/19 10:18:12;;;;;;;4.70;4.10;;;28.10;1.00;;;;;;5058212;28;20168;-82
2023/06/19 10:20:39;;;;;;;4.55;4.15;;;28.10;1.00;;;;;;5036783;28;20197;-82
2023/06/19 10:23:20;;;;;;;4.68;4.15;;;28.20;1.00;;;;;;5035766;28;20174;-82
2023/06/19 10:25:48;;;;;;;4.80;4.40;;;28.20;1.00;;;;;;5029491;28;20174;-83
2023/06/19 10:28:29;;;;;;;4.55;4.15;;;27.60;1.00;;;;;;5076370;28;20177;-84
2023/06/19 10:31:03;;;;;;;4.60;4.20;;;27.30;1.00;;;;;;5051832;28;20190;-84
2023/06/19 10:33:32;;;;;;;4.80;4.10;;;27.10;1.00;;;;;;5036512;28;20224;-83
2023/06/19 10:35:59;;;;;;;4.15;3.85;;;27.10;1.00;;;;;;5058594;28;20229;-82
2023/06/19 10:38:25;;;;;;;4.30;3.92;;;27.00;1.00;;;;;;5038603;28;20166;-83
2023/06/19 10:40:51;;;;;;;4.43;3.97;;;27.30;1.00;;;;;;5036832;28;20189;-85
2023/06/19 10:43:27;;;;;;;4.07;3.67;;;27.70;1.00;;;;;;5053894;28;20188;-80
2023/06/19 10:45:53;;;;;;;4.78;3.95;;;27.90;1.00;;;;;;5056319;28;20182;-80
2023/06/19 10:48:23;;;;;;;4.55;4.10;;;28.00;1.00;;;;;;5038965;28;20256;-81
2023/06/19 10:50:49;;;;;;;5.00;3.85;;;28.20;1.00;;;;;;5052469;28;20200;-81
2023/06/19 10:53:31;;;;;;;4.22;3.80;;;28.30;1.00;;;;;;5075912;28;20663;-81
2023/06/19 10:56:01;;;;;;;4.53;4.05;;;28.50;1.00;;;;;;5058771;28;20223;-81
2023/06/19 10:58:28;;;;;;;4.35;3.97;;;28.80;1.00;;;;;;5059271;28;20228;-81
2023/06/19 11:00:54;;;;;;;4.82;4.35;;;28.80;1.00;;;;;;5058205;28;20201;-80
2023/06/19 11:03:20;;;;;;;4.82;3.90;;;28.60;1.00;;;;;;5077776;28;20180;-79
2023/06/19 11:05:47;;;;;;;5.70;4.18;;;28.50;1.00;;;;;;5076467;28;20176;-79
2023/06/19 11:08:21;;;;;;;4.20;3.80;;;28.60;1.00;;;;;;5076702;28;20177;-79
2023/06/19 11:10:48;;;;;;;4.47;4.15;;;28.70;1.00;;;;;;5076861;28;20185;-79
2023/06/19 11:13:15;;;;;;;4.57;4.15;;;28.70;1.00;;;;;;5076378;28;20184;-80
2023/06/19 11:15:41;;;;;;;4.75;4.25;;;28.60;99.90;;;;;;5058584;28;20192;-79
2023/06/19 11:18:07;;;;;;;4.68;3.90;;;28.70;1.00;;;;;;5076295;28;20169;-79
2023/06/19 11:20:48;;;;;;;4.80;4.30;;;28.80;99.90;;;;;;5043532;28;20262;-79
2023/06/19 11:23:13;;;;;;;4.80;4.30;;;28.80;99.90;;;;;;5034333;28;20221;-79
2023/06/19 11:25:40;;;;;;;4.68;4.28;;;29.20;99.90;;;;;;5035792;28;20174;-78
2023/06/19 11:28:13;;;;;;;4.57;4.18;;;29.40;99.90;;;;;;5035676;28;20176;-79
2023/06/19 11:30:39;;;;;;;4.40;4.10;;;28.90;99.90;;;;;;5035964;28;20225;-78
2023/06/19 11:33:21;;;;;;;4.40;4.00;;;28.20;1.00;;;;;;5037015;28;20225;-78
2023/06/19 11:35:52;;;;;;;4.97;4.57;;;28.10;1.00;;;;;;5035715;28;20294;-78
2023/06/19 11:38:26;;;;;;;4.63;4.22;;;28.20;1.00;;;;;;5035624;28;20624;-78
2023/06/19 11:40:52;;;;;;;4.75;4.25;;;28.20;1.00;;;;;;5035534;28;20201;-78
2023/06/19 11:43:31;;;;;;;5.03;4.15;;;28.50;1.00;;;;;;5036045;28;20173;-78
2023/06/19 11:46:05;;;;;;;4.47;4.07;;;28.80;1.00;;;;;;5035827;28;20174;-79
2023/06/19 11:48:30;;;;;;;5.45;4.03;;;28.90;1.00;;;;;;5035817;28;20178;-78
2023/06/19 11:50:56;;;;;;;5.35;4.03;;;28.70;1.00;;;;;;5036484;28;20193;-77
2023/06/19 11:53:23;;;;;;;4.80;4.40;;;28.70;1.00;;;;;;5035468;28;20201;-78
2023/06/19 11:55:49;;;;;;;4.18;3.88;;;28.60;1.00;;;;;;5035783;28;20281;-78
2023/06/19 11:58:15;;;;;;;4.53;4.13;;;28.50;1.00;;;;;;5036778;28;20177;-80
2023/06/19 12:00:42;;;;;;;4.28;3.88;;;28.90;1.00;;;;;;5036502;28;20218;-78
2023/06/19 12:03:09;;;;;;;5.07;4.15;;;29.20;1.00;;;;;;5035608;28;20165;-79
2023/06/19 12:05:35;;;;;;;4.90;4.40;;;29.20;1.00;;;;;;5036306;28;20194;-78
2023/06/19 12:08:02;;;;;;;4.50;4.05;;;28.70;1.00;;;;;;5036234;28;20178;-77
2023/06/19 12:10:28;;;;;;;5.82;3.90;;;28.90;99.90;;;;;;5036900;28;20198;-76
2023/06/19 12:12:54;;;;;;;5.13;3.97;;;28.80;1.00;;;;;;5039772;28;20173;-78
2023/06/19 12:15:19;;;;;;;4.10;3.80;;;28.80;1.00;;;;;;5039956;28;20179;-78
2023/06/19 12:17:45;;;;;;;4.10;3.70;;;29.00;99.90;;;;;;5040817;28;20198;-78
2023/06/19 12:20:13;;;;;;;4.50;3.72;;;29.30;99.90;;;;;;5039564;28;20281;-78
2023/06/19 12:22:39;;;;;;;4.00;3.70;;;29.20;99.90;;;;;;5041111;28;20253;-78
2023/06/19 12:25:05;;;;;;;3.85;3.45;;;29.20;99.90;;;;;;5038550;28;20178;-78
2023/06/19 12:27:30;;;;;;;4.63;4.22;;;29.20;99.90;;;;;;5038873;28;20178;-78
2023/06/19 12:29:56;;;;;;;4.05;3.75;;;29.10;99.90;;;;;;5038585;28;20202;-78
2023/06/19 12:32:22;;;;;;;4.20;3.90;;;29.00;99.90;;;;;;5040328;28;20604;-78
2023/06/19 12:34:47;;;;;;;4.53;4.13;;;28.80;99.90;;;;;;5040472;28;20212;-78
2023/06/19 12:37:19;;;;;;;4.45;4.15;;;28.80;1.00;;;;;;5040136;28;20244;-78
2023/06/19 12:39:44;;;;;;;4.40;4.00;;;28.60;1.00;;;;;;5038780;28;20171;-87
2023/06/19 12:42:13;;;;;;;5.07;4.20;;;28.50;1.00;;;;;;5035838;28;20171;-80
2023/06/19 12:44:39;;;;;;;4.22;3.83;;;28.40;1.00;;;;;;5037018;28;20311;-78
2023/06/19 12:47:06;;;;;;;5.22;4.30;;;28.40;1.00;;;;;;5037372;28;20175;-80
2023/06/19 12:49:32;;;;;;;4.35;3.95;;;28.50;1.00;;;;;;5037386;28;20181;-80
2023/06/19 12:51:57;;;;;;;4.47;4.07;;;28.60;1.00;;;;;;5038937;28;20197;-81